Latest Weather Observations for Grafton Airport

IDN60801

Issued at 9:02 pm EST Monday 6 July 2015 (issued every 30 minutes, with the page automatically refreshed every 10 minutes)

About weather observations | Map of weather stations | Latest weather observations for NSW | Other Formats
Station Details ID: 058161 Name: GRAFTON AIRPORT AWS Lat: -29.76 Lon: 153.03 Height: 25.09 m
Data from the previous 72 hours. | See also: Recent months for locations in New South Wales
Date/Time
EST
Temp
°C
App
Temp
°C
Dew
Point
Rel
Hum
%
Delta-T
°C
Wind Press
QNH
hPa
Press
MSL
hPa
Rain
since 9 am
mm
Dir
 
Spd
km/h
Gust
km/h
Spd
kts
Gust
kts
06/09:00pm 9.6 8.8 6.7 82 1.4 CALM 0 0 0 0 1015.7 1015.6 0.0
06/08:30pm 10.2 9.1 6.9 80 1.6 S 2 7 1 4 1015.5 1015.5 0.0
06/08:00pm 11.4 10.8 7.5 77 1.9 CALM 0 0 0 0 1015.4 1015.4 0.0
06/07:30pm 12.3 11.7 7.4 72 2.4 CALM 0 6 0 3 1015.3 1015.3 0.0
06/07:00pm 12.9 12.3 7.6 70 2.6 CALM 0 0 0 0 1015.3 1015.3 0.0
06/06:30pm 15.5 14.7 6.5 55 4.4 CALM 0 6 0 3 1015.0 1015.0 0.0
06/06:00pm 16.2 15.0 6.6 53 4.7 WSW 2 7 1 4 1014.5 1014.5 0.0
06/05:30pm 16.4 15.8 8.9 61 3.9 SW 2 7 1 4 1014.1 1014.1 0.0
06/05:00pm 17.2 16.9 8.6 57 4.4 CALM 0 6 0 3 1013.7 1013.7 0.0
06/04:30pm 19.7 18.9 8.1 47 6.0 N 2 6 1 3 1013.4 1013.4 0.0
06/04:00pm 21.5 19.4 8.1 42 7.0 N 9 13 5 7 1013.2 1013.2 0.0
06/03:30pm 22.2 20.4 9.4 44 6.9 NNW 9 15 5 8 1013.2 1013.2 0.0
06/03:00pm 22.0 19.7 8.9 43 7.0 NNW 11 19 6 10 1013.4 1013.4 0.0
06/02:30pm 21.5 18.7 8.4 43 6.9 NNE 13 19 7 10 1013.5 1013.5 0.0
06/02:00pm 21.2 17.8 7.8 42 7.0 N 15 20 8 11 1013.6 1013.6 0.0
06/01:30pm 20.6 18.3 8.9 47 6.2 N 11 17 6 9 1013.9 1013.9 0.0
06/01:00pm 20.3 18.4 9.2 49 5.9 NNW 9 15 5 8 1014.5 1014.5 0.0
06/12:30pm 19.3 16.5 8.6 50 5.6 N 13 19 7 10 1015.0 1015.0 0.0
06/12:00pm 18.6 16.1 8.3 51 5.3 N 11 15 6 8 1015.6 1015.6 0.0
06/11:30am 17.8 16.0 9.4 58 4.4 NNE 9 13 5 7 1016.3 1016.3 0.0
06/11:00am 15.9 14.3 8.9 63 3.6 NE 7 11 4 6 1016.9 1016.9 0.0
06/10:30am 14.2 13.7 9.4 73 2.5 WSW 2 6 1 3 1017.5 1017.5 0.0
06/10:00am 12.4 11.2 8.1 75 2.1 NNE 4 7 2 4 1017.8 1017.8 0.0
06/09:30am 11.2 10.5 8.4 83 1.4 NNE 2 6 1 3 1018.1 1018.1 0.0
06/09:00am 9.1 8.5 7.4 89 0.8 CALM 0 6 0 3 1018.2 1018.2 0.0
06/08:50am 8.2 7.5 7.1 93 0.5 CALM 0 0 0 0 1018.3 1018.3 0.0
06/08:33am 6.8 6.0 6.4 97 0.2 CALM 0 0 0 0 1018.2 1018.2 0.0
06/08:30am 6.7 5.9 6.4 98 0.1 CALM 0 0 0 0 1018.2 1018.2 0.0
06/08:20am 6.3 5.4 6.2 99 0.0 CALM 0 0 0 0 1018.2 1018.2 0.0
06/08:04am 6.0 5.1 5.9 99 0.0 CALM 0 0 0 0 1018.1 1018.1 0.0
06/08:00am 5.6 4.6 5.5 99 0.0 CALM 0 0 0 0 1018.1 1018.1 0.0
06/07:37am 3.8 2.4 3.7 99 0.0 CALM 0 0 0 0 1018.3 1018.3 0.0
06/07:30am 3.4 2.0 3.3 99 0.0 CALM 0 0 0 0 1018.3 1018.3 0.0
06/07:00am 2.8 1.2 2.7 99 0.0 CALM 0 0 0 0 1018.1 1018.1 0.0
06/06:33am 2.7 1.1 2.4 98 0.1 CALM 0 0 0 0 1017.9 1017.9 0.0
06/06:30am 2.7 1.1 2.4 98 0.1 CALM 0 0 0 0 1017.9 1017.9 0.0
06/06:08am 2.8 1.2 2.5 98 0.1 CALM 0 0 0 0 1017.8 1017.8 0.0
06/06:00am 2.9 1.3 2.6 98 0.1 CALM 0 0 0 0 1017.9 1017.9 0.0
06/05:30am 3.2 1.7 2.9 98 0.1 CALM 0 0 0 0 1017.9 1017.9 0.0
06/05:00am 3.4 1.9 3.0 97 0.2 CALM 0 0 0 0 1017.9 1017.9 0.0
06/04:52am 3.4 1.9 3.1 98 0.1 CALM 0 0 0 0 1017.9 1017.9 0.0
06/04:35am 4.0 2.6 3.7 98 0.1 CALM 0 4 0 2 1017.9 1017.9 0.0
06/04:30am 4.0 2.2 3.7 98 0.1 SSE 2 6 1 3 1018.0 1018.0 0.0
06/04:20am 4.0 1.9 3.7 98 0.1 S 4 7 2 4 1018.0 1018.0 0.0
06/04:00am 4.2 2.9 3.9 98 0.1 CALM 0 0 0 0 1018.2 1018.2 0.0
06/03:52am 4.5 3.2 4.2 98 0.1 CALM 0 0 0 0 1018.2 1018.2 0.0
06/03:30am 4.8 3.6 4.5 98 0.1 CALM 0 0 0 0 1018.3 1018.3 0.0
06/03:00am 4.7 3.4 4.3 97 0.2 CALM 0 0 0 0 1018.6 1018.6 0.0
06/02:30am 4.7 3.4 4.3 97 0.2 CALM 0 0 0 0 1018.8 1018.8 0.0
06/02:00am 5.6 4.5 5.2 97 0.2 CALM 0 0 0 0 1019.3 1019.3 0.0
06/01:42am 6.2 5.3 5.9 98 0.1 CALM 0 0 0 0 1019.4 1019.4 0.0
06/01:30am 6.4 5.5 6.1 98 0.1 CALM 0 0 0 0 1019.4 1019.4 0.0
06/01:00am 6.7 5.9 6.3 97 0.2 CALM 0 0 0 0 1019.4 1019.4 0.0
06/12:37am 6.3 5.3 5.6 95 0.3 CALM 0 0 0 0 1019.6 1019.6 0.0
06/12:34am 6.4 5.4 5.7 95 0.3 CALM 0 0 0 0 1019.6 1019.6 0.0
06/12:30am 6.4 5.4 5.7 95 0.3 CALM 0 0 0 0 1019.5 1019.5 0.0
06/12:00am 7.3 6.6 6.9 97 0.2 CALM 0 0 0 0 1019.7 1019.7 0.0
 
Date/Time
EST
Temp
°C
App
Temp
°C
Dew
Point
Rel
Hum
%
Delta-T
°C
Wind Press
QNH
hPa
Press
MSL
hPa
Rain
since 9 am
mm
Dir
 
Spd
km/h
Gust
km/h
Spd
kts
Gust
kts
05/11:58pm 7.3 6.6 6.9 97 0.2 CALM 0 0 0 0 1019.7 1019.7 0.0
05/11:30pm 7.6 5.8 7.2 97 0.2 S 6 7 3 4 1019.9 1019.9 0.0
05/11:00pm 7.7 6.6 7.0 95 0.3 SW 2 7 1 4 1020.1 1020.1 0.0
05/10:30pm 8.1 7.5 7.3 95 0.4 CALM 0 0 0 0 1020.3 1020.3 0.0
05/10:00pm 8.5 6.8 7.7 95 0.4 SW 6 9 3 5 1020.3 1020.3 0.0
05/09:30pm 8.7 7.4 7.6 93 0.5 SSW 4 7 2 4 1020.2 1020.2 0.0
05/09:00pm 9.1 7.3 8.0 93 0.5 SSW 7 11 4 6 1020.2 1020.2 0.0
05/08:30pm 9.8 8.4 8.9 94 0.4 SSW 6 9 3 5 1020.2 1020.2 0.0
05/08:00pm 10.3 9.0 9.2 93 0.5 SSW 6 7 3 4 1020.1 1020.1 0.0
05/07:30pm 10.3 8.9 8.7 90 0.8 SW 6 7 3 4 1019.8 1019.8 0.0
05/07:00pm 11.3 9.8 10.4 94 0.5 SSW 9 11 5 6 1019.5 1019.5 0.0
05/06:30pm 11.5 10.2 10.1 91 0.7 SW 7 9 4 5 1019.5 1019.5 0.0
05/06:00pm 12.9 12.7 10.3 84 1.3 SSW 2 6 1 3 1019.2 1019.2 0.0
05/05:30pm 14.9 13.1 9.3 69 2.9 SE 9 11 5 6 1019.0 1019.0 0.0
05/05:00pm 16.2 14.8 9.6 65 3.4 ESE 7 11 4 6 1018.9 1018.9 0.0
05/04:30pm 17.6 16.4 9.5 59 4.2 ESE 6 7 3 4 1018.8 1018.8 0.0
05/04:00pm 20.0 18.4 8.7 48 5.9 NE 7 13 4 7 1018.8 1018.8 0.0
05/03:30pm 20.2 18.3 7.6 44 6.5 E 7 11 4 6 1018.9 1018.9 0.0
05/03:00pm 20.4 18.5 7.4 43 6.6 NE 7 13 4 7 1019.0 1019.0 0.0
05/02:30pm 20.8 18.9 7.4 42 6.9 NNE 7 15 4 8 1019.0 1019.0 0.0
05/02:00pm 20.5 18.6 6.8 41 6.9 N 6 15 3 8 1019.2 1019.2 0.0
05/01:30pm 20.0 17.7 7.4 44 6.4 NNE 9 15 5 8 1019.3 1019.3 0.0
05/01:00pm 20.0 17.8 7.7 45 6.3 NNW 9 11 5 6 1019.7 1019.7 0.0
05/12:30pm 18.8 16.8 7.3 47 5.8 WNW 7 13 4 7 1020.2 1020.2 0.0
05/12:00pm 18.5 16.9 8.7 53 5.1 NNE 7 11 4 6 1020.7 1020.7 0.0
05/11:30am 17.3 15.7 7.9 54 4.8 NNW 6 11 3 6 1021.4 1021.4 0.0
05/11:00am 15.6 14.1 8.6 63 3.5 S 6 9 3 5 1021.9 1021.9 0.0
05/10:30am 14.4 13.3 8.6 68 2.9 NNE 4 9 2 5 1022.4 1022.4 0.0
05/10:00am 12.9 11.3 8.0 72 2.4 NNE 6 9 3 5 1022.7 1022.7 0.0
05/09:30am 11.8 10.5 7.5 75 2.1 NNE 4 7 2 4 1022.9 1022.9 0.0
05/09:00am 10.5 9.9 7.4 81 1.5 CALM 0 0 0 0 1022.8 1022.8 0.2
05/08:30am 9.4 8.8 7.5 88 0.9 CALM 0 0 0 0 1022.8 1022.8 0.2
05/08:00am 7.0 6.2 6.7 98 0.1 CALM 0 0 0 0 1022.6 1022.6 0.2
05/07:30am 5.1 4.0 5.0 99 0.0 CALM 0 0 0 0 1022.5 1022.5 0.2
05/07:00am 3.6 2.1 3.2 97 0.2 CALM 0 0 0 0 1022.4 1022.4 0.2
05/06:30am 3.7 2.3 3.4 98 0.1 CALM 0 6 0 3 1022.1 1022.1 0.2
05/06:00am 3.6 1.4 3.3 98 0.1 S 4 6 2 3 1022.0 1022.0 0.2
05/05:30am 3.9 1.7 3.6 98 0.1 S 4 9 2 5 1021.8 1021.8 0.0
05/05:00am 3.8 1.6 3.4 97 0.2 WSW 4 7 2 4 1021.7 1021.7 0.0
05/04:47am 3.9 2.5 3.5 97 0.2 CALM 0 0 0 0 1021.5 1021.5 0.0
05/04:30am 4.1 2.7 3.7 97 0.2 CALM 0 0 0 0 1021.5 1021.5 0.0
05/04:08am 4.5 3.2 4.1 97 0.2 CALM 0 0 0 0 1021.6 1021.6 0.0
05/04:03am 4.5 3.2 4.1 97 0.2 CALM 0 0 0 0 1021.6 1021.6 0.0
05/04:00am 4.5 3.2 4.1 97 0.2 CALM 0 0 0 0 1021.6 1021.6 0.0
05/03:48am 4.8 3.6 4.4 97 0.2 CALM 0 0 0 0 1021.6 1021.6 0.0
05/03:30am 5.7 4.7 5.6 99 0.0 CALM 0 0 0 0 1021.7 1021.7 0.0
05/03:00am 5.8 4.8 5.5 98 0.1 CALM 0 0 0 0 1021.8 1021.8 0.0
05/02:30am 5.4 4.2 4.8 96 0.3 CALM 0 0 0 0 1021.8 1021.8 0.0
05/02:25am 5.5 4.4 4.9 96 0.3 CALM 0 0 0 0 1021.7 1021.7 0.0
05/02:19am 6.1 5.1 5.7 97 0.2 CALM 0 0 0 0 1021.8 1021.8 0.0
05/02:00am 6.6 5.8 6.3 98 0.1 CALM 0 0 0 0 1021.9 1021.9 0.0
05/01:30am 6.5 5.6 6.1 97 0.2 CALM 0 0 0 0 1022.0 1022.0 0.0
05/01:00am 6.4 5.5 6.0 97 0.2 CALM 0 0 0 0 1022.0 1022.0 0.0
05/12:30am 6.5 5.6 6.1 97 0.2 CALM 0 0 0 0 1021.9 1021.9 0.0
05/12:18am 7.0 6.2 6.7 98 0.1 CALM 0 0 0 0 1022.0 1022.0 0.0
05/12:00am 6.3 5.3 5.7 96 0.3 CALM 0 0 0 0 1022.2 1022.2 0.0
 
Date/Time
EST
Temp
°C
App
Temp
°C
Dew
Point
Rel
Hum
%
Delta-T
°C
Wind Press
QNH
hPa
Press
MSL
hPa
Rain
since 9 am
mm
Dir
 
Spd
km/h
Gust
km/h
Spd
kts
Gust
kts
04/11:43pm 6.3 4.9 5.7 96 0.3 S 2 6 1 3 1022.0 1022.0 0.0
04/11:30pm 7.2 5.3 6.8 97 0.2 S 6 7 3 4 1021.9 1021.9 0.0
04/11:00pm 7.4 6.7 7.0 97 0.2 CALM 0 0 0 0 1022.1 1022.1 0.0
04/10:30pm 7.6 6.1 7.0 96 0.3 WSW 4 7 2 4 1022.0 1022.0 0.0
04/10:00pm 7.9 6.5 7.1 95 0.4 SSW 4 9 2 5 1021.7 1021.7 0.0
04/09:30pm 8.5 7.2 7.7 95 0.4 SSW 4 7 2 4 1021.8 1021.8 0.0
04/09:00pm 8.7 6.9 8.1 96 0.3 SSW 7 9 4 5 1021.9 1021.9 0.0
04/08:30pm 8.9 6.8 8.3 96 0.3 SSW 9 11 5 6 1021.8 1021.8 0.0
04/08:00pm 9.2 7.6 8.0 92 0.6 SW 6 6 3 3 1021.7 1021.7 0.0
04/07:30pm 10.1 8.5 8.7 91 0.7 S 7 11 4 6 1021.6 1021.6 0.0
04/07:00pm 10.6 9.2 9.4 92 0.6 SSE 7 9 4 5 1021.3 1021.3 0.0
04/06:30pm 11.7 11.3 9.6 87 1.1 SE 2 7 1 4 1020.9 1020.9 0.0
04/06:00pm 12.1 12.0 9.5 84 1.3 CALM 0 0 0 0 1020.6 1020.6 0.0
04/05:30pm 13.9 13.0 9.1 73 2.4 NE 4 6 2 3 1020.4 1020.4 0.0
04/05:00pm 15.5 14.2 9.2 66 3.2 ENE 6 7 3 4 1020.2 1020.2 0.0
04/04:30pm 16.6 14.2 8.8 60 4.0 N 11 13 6 7 1020.1 1020.1 0.0
04/04:00pm 18.8 16.2 7.9 49 5.6 N 11 15 6 8 1020.1 1020.1 0.0
04/03:30pm 19.1 16.2 8.1 49 5.7 N 13 17 7 9 1020.2 1020.2 0.0
04/03:00pm 19.8 17.8 7.2 44 6.4 NNW 7 13 4 7 1020.4 1020.4 0.0
04/02:30pm 19.4 16.5 6.5 43 6.5 N 11 15 6 8 1020.5 1020.5 0.0
04/02:00pm 19.4 17.4 7.2 45 6.2 NW 7 11 4 6 1020.5 1020.5 0.0
04/01:30pm 19.2 16.9 7.3 46 6.0 NNW 9 19 5 10 1020.8 1020.8 0.0
04/01:00pm 19.0 16.2 7.1 46 6.0 N 11 17 6 9 1021.2 1021.2 0.0
04/12:30pm 18.7 16.8 7.5 48 5.7 NNW 7 13 4 7 1021.6 1021.6 0.0
04/12:00pm 17.7 15.8 6.9 49 5.4 W 6 9 3 5 1022.3 1022.3 0.0
04/11:30am 17.9 16.6 7.6 51 5.2 ENE 4 13 2 7 1023.2 1023.2 0.0
04/11:00am 15.9 13.8 6.6 54 4.5 WSW 7 11 4 6 1023.8 1023.8 0.0
04/10:30am 14.7 12.8 7.7 63 3.5 W 7 9 4 5 1024.3 1024.3 0.0
04/10:00am 13.4 12.1 7.6 68 2.8 WNW 4 7 2 4 1024.4 1024.4 0.0
04/09:30am 12.1 11.2 7.8 75 2.1 SSE 2 7 1 4 1024.7 1024.7 0.0
04/09:00am 10.2 8.7 6.9 80 1.5 SSW 4 7 2 4 1024.7 1024.7 0.0
04/08:30am 8.5 7.7 6.5 87 0.9 CALM 0 6 0 3 1024.6 1024.6 0.0
04/08:00am 6.5 5.6 5.9 96 0.3 CALM 0 0 0 0 1024.7 1024.7 0.0
04/07:30am 4.7 3.4 4.3 97 0.2 CALM 0 0 0 0 1024.6 1024.6 0.0
04/07:00am 3.6 2.1 2.9 95 0.3 CALM 0 0 0 0 1024.3 1024.3 0.0
04/06:30am 3.9 2.1 3.5 97 0.2 SSW 2 6 1 3 1023.9 1023.9 0.0
04/06:00am 4.2 1.7 3.6 96 0.2 S 6 7 3 4 1023.7 1023.7 0.0
04/05:30am 4.8 3.5 4.2 96 0.3 CALM 0 0 0 0 1023.6 1023.6 0.0
04/05:16am 4.5 3.2 3.9 96 0.3 CALM 0 0 0 0 1023.6 1023.6 0.0
04/05:00am 4.6 3.2 3.7 94 0.4 CALM 0 0 0 0 1023.4 1023.4 0.0
04/04:42am 4.7 3.3 3.7 93 0.4 CALM 0 0 0 0 1023.5 1023.5 0.0
04/04:30am 4.9 3.5 3.7 92 0.5 CALM 0 0 0 0 1023.5 1023.5 0.0
04/04:00am 6.1 3.9 5.1 93 0.4 S 6 9 3 5 1023.5 1023.5 0.0
04/03:30am 6.1 3.7 5.2 94 0.4 SSW 7 9 4 5 1023.7 1023.7 0.0
04/03:00am 5.9 3.1 5.2 95 0.3 SSW 9 11 5 6 1023.8 1023.8 0.0
04/02:30am 6.1 3.9 5.1 93 0.4 SSW 6 7 3 4 1023.7 1023.7 0.0
04/02:00am 6.7 4.3 5.3 91 0.6 SSW 7 9 4 5 1023.9 1023.9 0.0
04/01:30am 6.9 4.2 5.7 92 0.5 SSW 9 11 5 6 1023.9 1023.9 0.0
04/01:00am 6.6 4.3 5.7 94 0.4 SSW 7 9 4 5 1024.0 1024.0 0.0
04/12:30am 6.5 3.8 5.8 95 0.3 SSW 9 11 5 6 1024.1 1024.1 0.0
04/12:00am 6.3 4.0 5.6 95 0.3 SSW 7 9 4 5 1024.0 1024.0 0.0
 
Date/Time
EST
Temp
°C
App
Temp
°C
Dew
Point
Rel
Hum
%
Delta-T
°C
Wind Press
QNH
hPa
Press
MSL
hPa
Rain
since 9 am
mm
Dir
 
Spd
km/h
Gust
km/h
Spd
kts
Gust
kts
03/11:30pm 6.4 4.1 5.5 94 0.4 SSW 7 9 4 5 1024.2 1024.2 0.0
03/11:00pm 6.8 4.5 5.9 94 0.4 SSW 7 9 4 5 1024.1 1024.1 0.0
03/10:30pm 7.7 5.6 6.8 94 0.4 SSW 7 9 4 5 1024.4 1024.4 0.0
03/10:00pm 7.0 4.7 5.9 93 0.5 SW 7 9 4 5 1024.6 1024.6 0.0
03/09:30pm 8.3 6.4 7.4 94 0.4 SSW 7 11 4 6 1024.6 1024.6 0.0

Other Formats:

Comma delimited format used in spreadsheet applications
http://www.bom.gov.au/fwo/IDN60801/IDN60801.95570.axf

JavaScript Object Notation format (JSON) in row-major order
http://www.bom.gov.au/fwo/IDN60801/IDN60801.95570.json